sensor_id;sensor_type;location;lat;lon;timestamp;P1;durP1;ratioP1;P2;durP2;ratioP2
49051;SDS011;34866;48.670;18.260;2023-09-07T00:01:43;6.22;;;3.10;;
49051;SDS011;34866;48.670;18.260;2023-09-07T00:04:09;5.47;;;2.92;;
49051;SDS011;34866;48.670;18.260;2023-09-07T00:06:35;7.68;;;2.92;;
49051;SDS011;34866;48.670;18.260;2023-09-07T00:09:02;4.70;;;2.58;;
49051;SDS011;34866;48.670;18.260;2023-09-07T00:11:28;6.75;;;3.22;;
49051;SDS011;34866;48.670;18.260;2023-09-07T00:13:53;13.30;;;3.15;;
49051;SDS011;34866;48.670;18.260;2023-09-07T00:16:19;5.28;;;2.53;;
49051;SDS011;34866;48.670;18.260;2023-09-07T00:18:45;6.20;;;3.03;;
49051;SDS011;34866;48.670;18.260;2023-09-07T00:21:11;5.55;;;2.97;;
49051;SDS011;34866;48.670;18.260;2023-09-07T00:23:36;5.32;;;2.30;;
49051;SDS011;34866;48.670;18.260;2023-09-07T00:26:02;6.15;;;2.97;;
49051;SDS011;34866;48.670;18.260;2023-09-07T00:28:28;7.47;;;3.17;;
49051;SDS011;34866;48.670;18.260;2023-09-07T00:30:53;5.07;;;2.53;;
49051;SDS011;34866;48.670;18.260;2023-09-07T00:33:19;6.00;;;2.97;;
49051;SDS011;34866;48.670;18.260;2023-09-07T00:35:45;7.32;;;3.15;;
49051;SDS011;34866;48.670;18.260;2023-09-07T00:38:10;8.45;;;3.10;;
49051;SDS011;34866;48.670;18.260;2023-09-07T00:40:36;8.32;;;3.22;;
49051;SDS011;34866;48.670;18.260;2023-09-07T00:43:02;8.07;;;3.10;;
49051;SDS011;34866;48.670;18.260;2023-09-07T00:45:29;8.23;;;2.72;;
49051;SDS011;34866;48.670;18.260;2023-09-07T00:47:55;7.18;;;2.80;;
49051;SDS011;34866;48.670;18.260;2023-09-07T00:50:21;6.40;;;2.80;;
49051;SDS011;34866;48.670;18.260;2023-09-07T00:52:47;5.88;;;2.95;;
49051;SDS011;34866;48.670;18.260;2023-09-07T00:55:13;5.82;;;2.60;;
49051;SDS011;34866;48.670;18.260;2023-09-07T00:57:39;6.60;;;3.25;;
49051;SDS011;34866;48.670;18.260;2023-09-07T01:00:07;5.10;;;2.80;;
49051;SDS011;34866;48.670;18.260;2023-09-07T01:02:34;6.78;;;2.95;;
49051;SDS011;34866;48.670;18.260;2023-09-07T01:05:01;4.80;;;2.53;;
49051;SDS011;34866;48.670;18.260;2023-09-07T01:07:32;5.28;;;2.47;;
49051;SDS011;34866;48.670;18.260;2023-09-07T01:10:02;5.72;;;2.88;;
49051;SDS011;34866;48.670;18.260;2023-09-07T01:12:29;6.97;;;3.08;;
49051;SDS011;34866;48.670;18.260;2023-09-07T01:14:55;5.25;;;2.60;;
49051;SDS011;34866;48.670;18.260;2023-09-07T01:17:21;10.27;;;3.35;;
49051;SDS011;34866;48.670;18.260;2023-09-07T01:19:50;5.90;;;3.17;;
49051;SDS011;34866;48.670;18.260;2023-09-07T01:22:19;6.35;;;3.17;;
49051;SDS011;34866;48.670;18.260;2023-09-07T01:24:49;6.22;;;2.70;;
49051;SDS011;34866;48.670;18.260;2023-09-07T01:27:16;6.22;;;2.72;;
49051;SDS011;34866;48.670;18.260;2023-09-07T01:29:42;6.93;;;2.92;;
49051;SDS011;34866;48.670;18.260;2023-09-07T01:32:08;5.63;;;2.88;;
49051;SDS011;34866;48.670;18.260;2023-09-07T01:34:35;6.30;;;3.00;;
49051;SDS011;34866;48.670;18.260;2023-09-07T01:37:01;6.10;;;3.00;;
49051;SDS011;34866;48.670;18.260;2023-09-07T01:39:27;7.28;;;2.90;;
49051;SDS011;34866;48.670;18.260;2023-09-07T01:41:52;6.90;;;2.78;;
49051;SDS011;34866;48.670;18.260;2023-09-07T01:44:18;5.70;;;3.10;;
49051;SDS011;34866;48.670;18.260;2023-09-07T01:46:44;9.70;;;3.17;;
49051;SDS011;34866;48.670;18.260;2023-09-07T01:49:09;8.23;;;3.15;;
49051;SDS011;34866;48.670;18.260;2023-09-07T01:51:35;5.65;;;3.17;;
49051;SDS011;34866;48.670;18.260;2023-09-07T01:54:02;6.88;;;3.25;;
49051;SDS011;34866;48.670;18.260;2023-09-07T01:56:29;5.70;;;2.80;;
49051;SDS011;34866;48.670;18.260;2023-09-07T01:58:56;6.75;;;3.42;;
49051;SDS011;34866;48.670;18.260;2023-09-07T02:03:54;6.13;;;2.88;;
49051;SDS011;34866;48.670;18.260;2023-09-07T02:06:20;5.55;;;2.47;;
49051;SDS011;34866;48.670;18.260;2023-09-07T02:08:45;7.78;;;3.45;;
49051;SDS011;34866;48.670;18.260;2023-09-07T02:11:11;6.63;;;3.70;;
49051;SDS011;34866;48.670;18.260;2023-09-07T02:13:37;6.18;;;2.80;;
49051;SDS011;34866;48.670;18.260;2023-09-07T02:16:06;7.95;;;2.92;;
49051;SDS011;34866;48.670;18.260;2023-09-07T02:18:32;6.85;;;3.55;;
49051;SDS011;34866;48.670;18.260;2023-09-07T02:21:01;5.85;;;2.75;;
49051;SDS011;34866;48.670;18.260;2023-09-07T02:23:28;6.07;;;3.00;;
49051;SDS011;34866;48.670;18.260;2023-09-07T02:25:55;9.77;;;2.92;;
49051;SDS011;34866;48.670;18.260;2023-09-07T02:28:20;5.57;;;2.80;;
49051;SDS011;34866;48.670;18.260;2023-09-07T02:30:46;5.85;;;2.88;;
49051;SDS011;34866;48.670;18.260;2023-09-07T02:33:12;5.25;;;2.85;;
49051;SDS011;34866;48.670;18.260;2023-09-07T02:35:38;8.07;;;3.08;;
49051;SDS011;34866;48.670;18.260;2023-09-07T02:38:04;5.93;;;2.88;;
49051;SDS011;34866;48.670;18.260;2023-09-07T02:40:30;5.70;;;3.08;;
49051;SDS011;34866;48.670;18.260;2023-09-07T02:42:56;11.23;;;2.95;;
49051;SDS011;34866;48.670;18.260;2023-09-07T02:45:22;6.40;;;3.70;;
49051;SDS011;34866;48.670;18.260;2023-09-07T02:47:48;6.03;;;3.22;;
49051;SDS011;34866;48.670;18.260;2023-09-07T02:50:16;5.97;;;2.90;;
49051;SDS011;34866;48.670;18.260;2023-09-07T02:52:43;6.15;;;3.10;;
49051;SDS011;34866;48.670;18.260;2023-09-07T02:55:08;9.88;;;3.13;;
49051;SDS011;34866;48.670;18.260;2023-09-07T02:57:35;5.63;;;3.03;;
49051;SDS011;34866;48.670;18.260;2023-09-07T03:00:01;6.35;;;2.85;;
49051;SDS011;34866;48.670;18.260;2023-09-07T03:02:34;6.72;;;3.13;;
49051;SDS011;34866;48.670;18.260;2023-09-07T03:05:00;6.45;;;2.72;;
49051;SDS011;34866;48.670;18.260;2023-09-07T03:07:28;7.25;;;2.65;;
49051;SDS011;34866;48.670;18.260;2023-09-07T03:09:55;6.20;;;3.10;;
49051;SDS011;34866;48.670;18.260;2023-09-07T03:12:21;6.75;;;3.15;;
49051;SDS011;34866;48.670;18.260;2023-09-07T03:14:47;4.72;;;2.50;;
49051;SDS011;34866;48.670;18.260;2023-09-07T03:17:13;6.97;;;3.33;;
49051;SDS011;34866;48.670;18.260;2023-09-07T03:19:42;5.22;;;2.72;;
49051;SDS011;34866;48.670;18.260;2023-09-07T03:22:09;5.75;;;2.70;;
49051;SDS011;34866;48.670;18.260;2023-09-07T03:24:35;6.03;;;3.10;;
49051;SDS011;34866;48.670;18.260;2023-09-07T03:27:02;5.88;;;2.92;;
49051;SDS011;34866;48.670;18.260;2023-09-07T03:29:29;10.00;;;3.08;;
49051;SDS011;34866;48.670;18.260;2023-09-07T03:31:55;8.60;;;3.22;;
49051;SDS011;34866;48.670;18.260;2023-09-07T03:34:21;6.00;;;2.75;;
49051;SDS011;34866;48.670;18.260;2023-09-07T03:36:48;5.80;;;3.08;;
49051;SDS011;34866;48.670;18.260;2023-09-07T03:39:14;5.38;;;2.50;;
49051;SDS011;34866;48.670;18.260;2023-09-07T03:41:41;5.93;;;2.80;;
49051;SDS011;34866;48.670;18.260;2023-09-07T03:44:07;7.18;;;3.58;;
49051;SDS011;34866;48.670;18.260;2023-09-07T03:46:33;6.18;;;3.22;;
49051;SDS011;34866;48.670;18.260;2023-09-07T03:48:58;5.75;;;2.58;;
49051;SDS011;34866;48.670;18.260;2023-09-07T03:51:24;6.20;;;2.85;;
49051;SDS011;34866;48.670;18.260;2023-09-07T03:53:50;9.05;;;3.17;;
49051;SDS011;34866;48.670;18.260;2023-09-07T03:56:16;5.05;;;2.58;;
49051;SDS011;34866;48.670;18.260;2023-09-07T03:58:42;7.15;;;3.42;;
49051;SDS011;34866;48.670;18.260;2023-09-07T04:01:08;6.05;;;2.95;;
49051;SDS011;34866;48.670;18.260;2023-09-07T04:03:34;5.85;;;2.83;;
49051;SDS011;34866;48.670;18.260;2023-09-07T04:06:00;9.20;;;3.42;;
49051;SDS011;34866;48.670;18.260;2023-09-07T04:08:26;10.88;;;3.55;;
49051;SDS011;34866;48.670;18.260;2023-09-07T04:10:52;6.85;;;3.30;;
49051;SDS011;34866;48.670;18.260;2023-09-07T04:13:17;5.78;;;2.88;;
49051;SDS011;34866;48.670;18.260;2023-09-07T04:15:43;5.78;;;3.00;;
49051;SDS011;34866;48.670;18.260;2023-09-07T04:18:12;6.22;;;3.17;;
49051;SDS011;34866;48.670;18.260;2023-09-07T04:20:40;6.35;;;2.90;;
49051;SDS011;34866;48.670;18.260;2023-09-07T04:23:06;5.35;;;2.78;;
49051;SDS011;34866;48.670;18.260;2023-09-07T04:25:32;5.30;;;2.65;;
49051;SDS011;34866;48.670;18.260;2023-09-07T04:27:57;6.53;;;3.10;;
49051;SDS011;34866;48.670;18.260;2023-09-07T04:30:23;16.63;;;3.97;;
49051;SDS011;34866;48.670;18.260;2023-09-07T04:32:49;9.82;;;3.30;;
49051;SDS011;34866;48.670;18.260;2023-09-07T04:35:15;6.95;;;3.28;;
49051;SDS011;34866;48.670;18.260;2023-09-07T04:37:44;7.18;;;3.30;;
49051;SDS011;34866;48.670;18.260;2023-09-07T04:40:11;8.35;;;3.38;;
49051;SDS011;34866;48.670;18.260;2023-09-07T04:42:38;5.88;;;2.65;;
49051;SDS011;34866;48.670;18.260;2023-09-07T04:45:04;6.97;;;2.85;;
49051;SDS011;34866;48.670;18.260;2023-09-07T04:47:32;8.98;;;3.17;;
49051;SDS011;34866;48.670;18.260;2023-09-07T04:49:58;7.90;;;3.78;;
49051;SDS011;34866;48.670;18.260;2023-09-07T04:52:24;7.18;;;3.25;;
49051;SDS011;34866;48.670;18.260;2023-09-07T04:54:49;7.55;;;3.53;;
49051;SDS011;34866;48.670;18.260;2023-09-07T04:57:19;13.77;;;3.30;;
49051;SDS011;34866;48.670;18.260;2023-09-07T04:59:45;12.23;;;3.38;;
49051;SDS011;34866;48.670;18.260;2023-09-07T05:02:10;10.40;;;3.72;;
49051;SDS011;34866;48.670;18.260;2023-09-07T05:04:37;6.13;;;3.40;;
49051;SDS011;34866;48.670;18.260;2023-09-07T05:07:03;5.47;;;2.53;;
49051;SDS011;34866;48.670;18.260;2023-09-07T05:09:29;5.10;;;2.70;;
49051;SDS011;34866;48.670;18.260;2023-09-07T05:11:56;8.20;;;3.42;;
49051;SDS011;34866;48.670;18.260;2023-09-07T05:14:23;8.50;;;3.35;;
49051;SDS011;34866;48.670;18.260;2023-09-07T05:16:49;8.38;;;3.67;;
49051;SDS011;34866;48.670;18.260;2023-09-07T05:19:15;10.25;;;2.90;;
49051;SDS011;34866;48.670;18.260;2023-09-07T05:21:41;6.25;;;2.85;;
49051;SDS011;34866;48.670;18.260;2023-09-07T05:24:07;7.57;;;3.17;;
49051;SDS011;34866;48.670;18.260;2023-09-07T05:26:33;7.10;;;2.90;;
49051;SDS011;34866;48.670;18.260;2023-09-07T05:28:59;10.45;;;3.72;;
49051;SDS011;34866;48.670;18.260;2023-09-07T05:31:24;7.50;;;3.47;;
49051;SDS011;34866;48.670;18.260;2023-09-07T05:33:50;9.10;;;3.50;;
49051;SDS011;34866;48.670;18.260;2023-09-07T05:36:17;7.57;;;3.58;;
49051;SDS011;34866;48.670;18.260;2023-09-07T05:38:42;6.72;;;2.88;;
49051;SDS011;34866;48.670;18.260;2023-09-07T05:41:08;6.30;;;3.15;;
49051;SDS011;34866;48.670;18.260;2023-09-07T05:43:34;8.82;;;2.92;;
49051;SDS011;34866;48.670;18.260;2023-09-07T05:46:00;6.85;;;3.28;;
49051;SDS011;34866;48.670;18.260;2023-09-07T05:48:25;7.18;;;3.50;;
49051;SDS011;34866;48.670;18.260;2023-09-07T05:50:51;7.32;;;3.05;;
49051;SDS011;34866;48.670;18.260;2023-09-07T05:53:18;8.18;;;3.45;;
49051;SDS011;34866;48.670;18.260;2023-09-07T05:55:45;8.23;;;3.08;;
49051;SDS011;34866;48.670;18.260;2023-09-07T05:58:12;6.55;;;3.00;;
49051;SDS011;34866;48.670;18.260;2023-09-07T06:00:38;7.97;;;3.17;;
49051;SDS011;34866;48.670;18.260;2023-09-07T06:03:05;7.15;;;3.55;;
49051;SDS011;34866;48.670;18.260;2023-09-07T06:05:33;7.55;;;3.17;;
49051;SDS011;34866;48.670;18.260;2023-09-07T06:08:00;12.38;;;2.95;;
49051;SDS011;34866;48.670;18.260;2023-09-07T06:10:27;7.32;;;2.70;;
49051;SDS011;34866;48.670;18.260;2023-09-07T06:12:54;10.63;;;3.40;;
49051;SDS011;34866;48.670;18.260;2023-09-07T06:15:20;8.38;;;3.20;;
49051;SDS011;34866;48.670;18.260;2023-09-07T06:17:46;6.65;;;3.45;;
49051;SDS011;34866;48.670;18.260;2023-09-07T06:20:13;6.80;;;3.30;;
49051;SDS011;34866;48.670;18.260;2023-09-07T06:22:39;7.03;;;3.33;;
49051;SDS011;34866;48.670;18.260;2023-09-07T06:25:04;6.55;;;3.47;;
49051;SDS011;34866;48.670;18.260;2023-09-07T06:27:30;5.47;;;2.63;;
49051;SDS011;34866;48.670;18.260;2023-09-07T06:29:56;7.72;;;3.65;;
49051;SDS011;34866;48.670;18.260;2023-09-07T06:32:22;6.32;;;3.10;;
49051;SDS011;34866;48.670;18.260;2023-09-07T06:34:47;8.90;;;3.47;;
49051;SDS011;34866;48.670;18.260;2023-09-07T06:37:13;8.40;;;3.40;;
49051;SDS011;34866;48.670;18.260;2023-09-07T06:39:39;7.05;;;3.30;;
49051;SDS011;34866;48.670;18.260;2023-09-07T06:42:07;6.03;;;3.22;;
49051;SDS011;34866;48.670;18.260;2023-09-07T06:44:34;8.82;;;3.95;;
49051;SDS011;34866;48.670;18.260;2023-09-07T06:47:00;5.93;;;3.38;;
49051;SDS011;34866;48.670;18.260;2023-09-07T06:49:26;6.63;;;3.25;;
49051;SDS011;34866;48.670;18.260;2023-09-07T06:51:54;7.38;;;3.05;;
49051;SDS011;34866;48.670;18.260;2023-09-07T06:54:23;8.70;;;3.15;;
49051;SDS011;34866;48.670;18.260;2023-09-07T06:56:48;8.07;;;3.05;;
49051;SDS011;34866;48.670;18.260;2023-09-07T06:59:14;8.82;;;3.30;;
49051;SDS011;34866;48.670;18.260;2023-09-07T07:01:40;8.43;;;4.22;;
49051;SDS011;34866;48.670;18.260;2023-09-07T07:04:06;9.20;;;4.20;;
49051;SDS011;34866;48.670;18.260;2023-09-07T07:06:32;7.28;;;3.97;;
49051;SDS011;34866;48.670;18.260;2023-09-07T07:08:58;8.88;;;3.88;;
49051;SDS011;34866;48.670;18.260;2023-09-07T07:11:24;7.93;;;3.42;;
49051;SDS011;34866;48.670;18.260;2023-09-07T07:13:49;9.57;;;3.30;;
49051;SDS011;34866;48.670;18.260;2023-09-07T07:16:16;7.35;;;3.13;;
49051;SDS011;34866;48.670;18.260;2023-09-07T07:18:42;7.97;;;2.95;;
49051;SDS011;34866;48.670;18.260;2023-09-07T07:21:08;9.68;;;3.88;;
49051;SDS011;34866;48.670;18.260;2023-09-07T07:23:34;6.65;;;3.63;;
49051;SDS011;34866;48.670;18.260;2023-09-07T07:26:01;9.30;;;3.58;;
49051;SDS011;34866;48.670;18.260;2023-09-07T07:28:27;12.18;;;5.13;;
49051;SDS011;34866;48.670;18.260;2023-09-07T07:30:53;11.57;;;4.57;;
49051;SDS011;34866;48.670;18.260;2023-09-07T07:33:19;8.15;;;3.80;;
49051;SDS011;34866;48.670;18.260;2023-09-07T07:35:45;7.20;;;3.83;;
49051;SDS011;34866;48.670;18.260;2023-09-07T07:38:11;9.18;;;3.88;;
49051;SDS011;34866;48.670;18.260;2023-09-07T07:40:38;10.40;;;4.22;;
49051;SDS011;34866;48.670;18.260;2023-09-07T07:43:04;8.63;;;4.07;;
49051;SDS011;34866;48.670;18.260;2023-09-07T07:45:31;9.27;;;4.43;;
49051;SDS011;34866;48.670;18.260;2023-09-07T07:48:01;9.45;;;4.90;;
49051;SDS011;34866;48.670;18.260;2023-09-07T07:50:27;6.90;;;3.40;;
49051;SDS011;34866;48.670;18.260;2023-09-07T07:52:53;9.05;;;3.25;;
49051;SDS011;34866;48.670;18.260;2023-09-07T07:55:19;7.57;;;3.58;;
49051;SDS011;34866;48.670;18.260;2023-09-07T07:57:44;8.48;;;3.70;;
49051;SDS011;34866;48.670;18.260;2023-09-07T08:00:10;7.05;;;3.60;;
49051;SDS011;34866;48.670;18.260;2023-09-07T08:02:36;6.38;;;3.10;;
49051;SDS011;34866;48.670;18.260;2023-09-07T08:05:02;5.97;;;3.25;;
49051;SDS011;34866;48.670;18.260;2023-09-07T08:07:29;8.65;;;3.17;;
49051;SDS011;34866;48.670;18.260;2023-09-07T08:09:55;9.70;;;3.70;;
49051;SDS011;34866;48.670;18.260;2023-09-07T08:12:20;8.23;;;3.60;;
49051;SDS011;34866;48.670;18.260;2023-09-07T08:14:46;6.70;;;3.20;;
49051;SDS011;34866;48.670;18.260;2023-09-07T08:17:12;7.85;;;3.70;;
49051;SDS011;34866;48.670;18.260;2023-09-07T08:19:38;6.65;;;2.97;;
49051;SDS011;34866;48.670;18.260;2023-09-07T08:22:04;7.45;;;3.10;;
49051;SDS011;34866;48.670;18.260;2023-09-07T08:24:30;8.02;;;3.08;;
49051;SDS011;34866;48.670;18.260;2023-09-07T08:26:58;10.60;;;3.40;;
49051;SDS011;34866;48.670;18.260;2023-09-07T08:29:25;6.38;;;2.67;;
49051;SDS011;34866;48.670;18.260;2023-09-07T08:31:52;7.40;;;2.72;;
49051;SDS011;34866;48.670;18.260;2023-09-07T08:34:18;5.75;;;2.95;;
49051;SDS011;34866;48.670;18.260;2023-09-07T08:36:46;8.25;;;3.78;;
49051;SDS011;34866;48.670;18.260;2023-09-07T08:39:12;6.10;;;3.10;;
49051;SDS011;34866;48.670;18.260;2023-09-07T08:41:41;9.90;;;3.20;;
49051;SDS011;34866;48.670;18.260;2023-09-07T08:44:12;6.28;;;2.75;;
49051;SDS011;34866;48.670;18.260;2023-09-07T08:46:41;5.75;;;2.80;;
49051;SDS011;34866;48.670;18.260;2023-09-07T08:49:08;5.93;;;2.75;;
49051;SDS011;34866;48.670;18.260;2023-09-07T08:51:34;5.20;;;2.65;;
49051;SDS011;34866;48.670;18.260;2023-09-07T08:54:02;4.90;;;2.33;;
49051;SDS011;34866;48.670;18.260;2023-09-07T08:56:29;5.82;;;2.90;;
49051;SDS011;34866;48.670;18.260;2023-09-07T08:58:55;5.10;;;2.30;;
49051;SDS011;34866;48.670;18.260;2023-09-07T09:01:21;6.50;;;2.40;;
49051;SDS011;34866;48.670;18.260;2023-09-07T09:03:47;7.35;;;2.58;;
49051;SDS011;34866;48.670;18.260;2023-09-07T09:06:14;4.78;;;2.70;;
49051;SDS011;34866;48.670;18.260;2023-09-07T09:08:45;5.25;;;2.20;;
49051;SDS011;34866;48.670;18.260;2023-09-07T09:11:15;4.63;;;2.27;;
49051;SDS011;34866;48.670;18.260;2023-09-07T09:13:42;5.82;;;2.50;;
49051;SDS011;34866;48.670;18.260;2023-09-07T09:16:09;4.45;;;2.20;;
49051;SDS011;34866;48.670;18.260;2023-09-07T09:18:35;6.30;;;2.25;;
49051;SDS011;34866;48.670;18.260;2023-09-07T09:21:04;5.05;;;2.13;;
49051;SDS011;34866;48.670;18.260;2023-09-07T09:23:33;4.88;;;2.25;;
49051;SDS011;34866;48.670;18.260;2023-09-07T09:26:00;4.78;;;2.38;;
49051;SDS011;34866;48.670;18.260;2023-09-07T09:28:28;6.93;;;2.53;;
49051;SDS011;34866;48.670;18.260;2023-09-07T09:30:57;4.63;;;2.10;;
49051;SDS011;34866;48.670;18.260;2023-09-07T09:33:23;4.20;;;2.15;;
49051;SDS011;34866;48.670;18.260;2023-09-07T09:35:51;7.50;;;2.35;;
49051;SDS011;34866;48.670;18.260;2023-09-07T09:38:18;8.95;;;2.13;;
49051;SDS011;34866;48.670;18.260;2023-09-07T09:40:44;4.65;;;2.15;;
49051;SDS011;34866;48.670;18.260;2023-09-07T09:43:10;4.38;;;2.17;;
49051;SDS011;34866;48.670;18.260;2023-09-07T09:45:38;5.80;;;2.20;;
49051;SDS011;34866;48.670;18.260;2023-09-07T09:48:05;10.52;;;2.67;;
49051;SDS011;34866;48.670;18.260;2023-09-07T09:50:31;4.00;;;1.98;;
49051;SDS011;34866;48.670;18.260;2023-09-07T09:53:03;5.32;;;2.42;;
49051;SDS011;34866;48.670;18.260;2023-09-07T09:55:32;7.00;;;2.10;;
49051;SDS011;34866;48.670;18.260;2023-09-07T09:57:58;5.18;;;2.50;;
49051;SDS011;34866;48.670;18.260;2023-09-07T10:00:24;4.65;;;2.35;;
49051;SDS011;34866;48.670;18.260;2023-09-07T10:05:19;4.90;;;1.88;;
49051;SDS011;34866;48.670;18.260;2023-09-07T10:07:48;4.70;;;2.10;;
49051;SDS011;34866;48.670;18.260;2023-09-07T10:10:15;4.22;;;2.00;;
49051;SDS011;34866;48.670;18.260;2023-09-07T10:12:43;4.85;;;1.80;;
49051;SDS011;34866;48.670;18.260;2023-09-07T10:15:20;5.43;;;2.10;;
49051;SDS011;34866;48.670;18.260;2023-09-07T10:17:49;5.43;;;2.10;;
49051;SDS011;34866;48.670;18.260;2023-09-07T10:20:17;4.68;;;1.98;;
49051;SDS011;34866;48.670;18.260;2023-09-07T10:22:46;12.80;;;3.08;;
49051;SDS011;34866;48.670;18.260;2023-09-07T10:25:18;4.47;;;2.08;;
49051;SDS011;34866;48.670;18.260;2023-09-07T10:27:45;5.30;;;2.08;;
49051;SDS011;34866;48.670;18.260;2023-09-07T10:30:12;4.93;;;2.17;;
49051;SDS011;34866;48.670;18.260;2023-09-07T10:32:39;12.25;;;3.33;;
49051;SDS011;34866;48.670;18.260;2023-09-07T10:35:14;7.82;;;1.98;;
49051;SDS011;34866;48.670;18.260;2023-09-07T10:37:42;4.68;;;2.00;;
49051;SDS011;34866;48.670;18.260;2023-09-07T10:40:11;5.07;;;2.25;;
49051;SDS011;34866;48.670;18.260;2023-09-07T10:42:37;4.88;;;2.15;;
49051;SDS011;34866;48.670;18.260;2023-09-07T10:45:10;4.93;;;2.28;;
49051;SDS011;34866;48.670;18.260;2023-09-07T10:47:44;6.57;;;2.25;;
49051;SDS011;34866;48.670;18.260;2023-09-07T10:50:11;4.47;;;2.00;;
49051;SDS011;34866;48.670;18.260;2023-09-07T10:52:38;4.43;;;2.20;;
49051;SDS011;34866;48.670;18.260;2023-09-07T10:55:06;5.22;;;2.30;;
49051;SDS011;34866;48.670;18.260;2023-09-07T10:57:42;4.82;;;1.77;;
49051;SDS011;34866;48.670;18.260;2023-09-07T11:00:11;4.22;;;2.10;;
49051;SDS011;34866;48.670;18.260;2023-09-07T11:02:39;4.93;;;2.28;;
49051;SDS011;34866;48.670;18.260;2023-09-07T11:05:06;6.30;;;2.10;;
49051;SDS011;34866;48.670;18.260;2023-09-07T11:07:32;5.47;;;2.17;;
49051;SDS011;34866;48.670;18.260;2023-09-07T11:09:58;5.32;;;1.95;;
49051;SDS011;34866;48.670;18.260;2023-09-07T11:12:24;3.95;;;1.83;;
49051;SDS011;34866;48.670;18.260;2023-09-07T11:14:50;4.68;;;2.15;;
49051;SDS011;34866;48.670;18.260;2023-09-07T11:17:17;5.60;;;1.90;;
49051;SDS011;34866;48.670;18.260;2023-09-07T11:19:43;4.28;;;2.15;;
49051;SDS011;34866;48.670;18.260;2023-09-07T11:22:12;6.65;;;2.10;;
49051;SDS011;34866;48.670;18.260;2023-09-07T11:24:38;5.47;;;2.00;;
49051;SDS011;34866;48.670;18.260;2023-09-07T11:27:05;4.22;;;1.85;;
49051;SDS011;34866;48.670;18.260;2023-09-07T11:29:31;4.15;;;2.00;;
49051;SDS011;34866;48.670;18.260;2023-09-07T11:32:09;5.00;;;2.45;;
49051;SDS011;34866;48.670;18.260;2023-09-07T11:34:57;4.82;;;2.40;;
49051;SDS011;34866;48.670;18.260;2023-09-07T11:37:23;6.50;;;2.05;;
49051;SDS011;34866;48.670;18.260;2023-09-07T11:39:50;4.72;;;1.65;;
49051;SDS011;34866;48.670;18.260;2023-09-07T11:42:15;7.25;;;2.40;;
49051;SDS011;34866;48.670;18.260;2023-09-07T11:44:41;4.82;;;2.00;;
49051;SDS011;34866;48.670;18.260;2023-09-07T11:47:07;5.30;;;2.25;;
49051;SDS011;34866;48.670;18.260;2023-09-07T11:49:32;6.15;;;2.10;;
49051;SDS011;34866;48.670;18.260;2023-09-07T11:51:58;4.45;;;2.10;;
49051;SDS011;34866;48.670;18.260;2023-09-07T11:54:24;9.15;;;2.05;;
49051;SDS011;34866;48.670;18.260;2023-09-07T11:56:50;4.85;;;2.22;;
49051;SDS011;34866;48.670;18.260;2023-09-07T11:59:15;4.20;;;2.15;;
49051;SDS011;34866;48.670;18.260;2023-09-07T12:01:44;3.95;;;1.60;;
49051;SDS011;34866;48.670;18.260;2023-09-07T12:04:10;3.97;;;1.70;;
49051;SDS011;34866;48.670;18.260;2023-09-07T12:06:36;4.97;;;2.13;;
49051;SDS011;34866;48.670;18.260;2023-09-07T12:09:02;3.55;;;1.77;;
49051;SDS011;34866;48.670;18.260;2023-09-07T12:11:32;4.30;;;2.05;;
49051;SDS011;34866;48.670;18.260;2023-09-07T12:13:58;5.18;;;2.10;;
49051;SDS011;34866;48.670;18.260;2023-09-07T12:16:27;5.28;;;2.08;;
49051;SDS011;34866;48.670;18.260;2023-09-07T12:18:53;4.28;;;2.10;;
49051;SDS011;34866;48.670;18.260;2023-09-07T12:21:20;5.20;;;1.83;;
49051;SDS011;34866;48.670;18.260;2023-09-07T12:23:45;6.97;;;1.98;;
49051;SDS011;34866;48.670;18.260;2023-09-07T12:26:14;6.57;;;2.22;;
49051;SDS011;34866;48.670;18.260;2023-09-07T12:28:41;4.20;;;1.80;;
49051;SDS011;34866;48.670;18.260;2023-09-07T12:31:07;3.10;;;1.50;;
49051;SDS011;34866;48.670;18.260;2023-09-07T12:33:33;4.50;;;2.00;;
49051;SDS011;34866;48.670;18.260;2023-09-07T12:35:58;4.80;;;1.73;;
49051;SDS011;34866;48.670;18.260;2023-09-07T12:38:25;4.18;;;1.67;;
49051;SDS011;34866;48.670;18.260;2023-09-07T12:40:53;3.75;;;1.83;;
49051;SDS011;34866;48.670;18.260;2023-09-07T12:43:19;3.88;;;2.10;;
49051;SDS011;34866;48.670;18.260;2023-09-07T12:45:45;5.05;;;2.20;;
49051;SDS011;34866;48.670;18.260;2023-09-07T12:48:11;4.30;;;2.15;;
49051;SDS011;34866;48.670;18.260;2023-09-07T12:50:37;4.88;;;1.80;;
49051;SDS011;34866;48.670;18.260;2023-09-07T12:53:05;5.40;;;2.03;;
49051;SDS011;34866;48.670;18.260;2023-09-07T12:55:31;4.15;;;1.77;;
49051;SDS011;34866;48.670;18.260;2023-09-07T12:57:58;8.93;;;1.85;;
49051;SDS011;34866;48.670;18.260;2023-09-07T13:00:25;4.30;;;1.90;;
49051;SDS011;34866;48.670;18.260;2023-09-07T13:02:51;6.47;;;2.22;;
49051;SDS011;34866;48.670;18.260;2023-09-07T13:05:18;5.10;;;2.60;;
49051;SDS011;34866;48.670;18.260;2023-09-07T13:07:44;6.85;;;1.80;;
49051;SDS011;34866;48.670;18.260;2023-09-07T13:10:10;16.60;;;2.25;;
49051;SDS011;34866;48.670;18.260;2023-09-07T13:12:36;7.28;;;2.00;;
49051;SDS011;34866;48.670;18.260;2023-09-07T13:15:03;4.80;;;1.65;;
49051;SDS011;34866;48.670;18.260;2023-09-07T13:17:29;4.18;;;1.80;;
49051;SDS011;34866;48.670;18.260;2023-09-07T13:19:55;10.10;;;2.03;;
49051;SDS011;34866;48.670;18.260;2023-09-07T13:22:21;7.55;;;1.70;;
49051;SDS011;34866;48.670;18.260;2023-09-07T13:24:47;4.63;;;2.08;;
49051;SDS011;34866;48.670;18.260;2023-09-07T13:27:12;4.90;;;1.92;;
49051;SDS011;34866;48.670;18.260;2023-09-07T13:29:38;7.18;;;1.90;;
49051;SDS011;34866;48.670;18.260;2023-09-07T13:32:04;6.63;;;1.70;;
49051;SDS011;34866;48.670;18.260;2023-09-07T13:34:30;3.63;;;1.73;;
49051;SDS011;34866;48.670;18.260;2023-09-07T13:36:56;4.45;;;1.90;;
49051;SDS011;34866;48.670;18.260;2023-09-07T13:39:22;6.07;;;1.70;;
49051;SDS011;34866;48.670;18.260;2023-09-07T13:41:48;4.68;;;1.85;;
49051;SDS011;34866;48.670;18.260;2023-09-07T13:44:14;4.50;;;1.75;;
49051;SDS011;34866;48.670;18.260;2023-09-07T13:46:40;4.13;;;1.67;;
49051;SDS011;34866;48.670;18.260;2023-09-07T13:49:07;4.57;;;1.73;;
49051;SDS011;34866;48.670;18.260;2023-09-07T13:51:32;6.88;;;2.08;;
49051;SDS011;34866;48.670;18.260;2023-09-07T13:54:03;3.90;;;1.80;;
49051;SDS011;34866;48.670;18.260;2023-09-07T13:56:30;4.50;;;1.52;;
49051;SDS011;34866;48.670;18.260;2023-09-07T13:58:57;5.30;;;2.03;;
49051;SDS011;34866;48.670;18.260;2023-09-07T14:01:23;6.32;;;1.88;;
49051;SDS011;34866;48.670;18.260;2023-09-07T14:03:49;4.55;;;1.95;;
49051;SDS011;34866;48.670;18.260;2023-09-07T14:06:15;5.32;;;1.75;;
49051;SDS011;34866;48.670;18.260;2023-09-07T14:08:43;3.97;;;1.83;;
49051;SDS011;34866;48.670;18.260;2023-09-07T14:11:14;3.65;;;1.60;;
49051;SDS011;34866;48.670;18.260;2023-09-07T14:13:42;3.92;;;1.52;;
49051;SDS011;34866;48.670;18.260;2023-09-07T14:16:20;3.30;;;1.48;;
49051;SDS011;34866;48.670;18.260;2023-09-07T14:18:48;5.43;;;1.77;;
49051;SDS011;34866;48.670;18.260;2023-09-07T14:21:15;5.63;;;1.50;;
49051;SDS011;34866;48.670;18.260;2023-09-07T14:23:42;5.15;;;1.70;;
49051;SDS011;34866;48.670;18.260;2023-09-07T14:26:09;7.35;;;2.85;;
49051;SDS011;34866;48.670;18.260;2023-09-07T14:28:35;4.93;;;1.73;;
49051;SDS011;34866;48.670;18.260;2023-09-07T14:31:03;3.58;;;1.65;;
49051;SDS011;34866;48.670;18.260;2023-09-07T14:33:31;4.05;;;1.60;;
49051;SDS011;34866;48.670;18.260;2023-09-07T14:35:58;4.13;;;1.73;;